Time;durP1;ratioP1;P1;durP2;ratioP2;P2;SDS_P1;SDS_P2;PMS_P1;PMS_P2;Temp;Humidity;BMP_temperature;BMP_pressure;BME280_temperature;BME280_humidity;BME280_pressure;Samples;Min_cycle;Max_cycle;Signal;HPM_P1;HPM_P2
2023/05/05 05:00:38;;;;;;;6.07;5.47;;;16.70;97.20;;;;;;1748367;28;20191;-62
2023/05/05 05:01:30;;;;;;;7.13;5.80;;;16.70;97.20;;;;;;1748251;28;20202;-63
2023/05/05 05:02:22;;;;;;;5.80;5.30;;;16.80;97.20;;;;;;1747774;28;20230;-62
2023/05/05 05:03:12;;;;;;;6.30;5.78;;;16.80;97.20;;;;;;1748277;28;20195;-61
2023/05/05 05:04:04;;;;;;;6.77;6.07;;;16.80;97.20;;;;;;1748336;28;20200;-63
2023/05/05 05:04:55;;;;;;;6.40;5.90;;;16.80;97.20;;;;;;1748242;28;20198;-63
2023/05/05 05:05:47;;;;;;;5.97;5.47;;;16.80;97.20;;;;;;1748345;28;20202;-62
2023/05/05 05:06:37;;;;;;;6.18;4.90;;;16.80;97.20;;;;;;1741885;28;20249;-62
2023/05/05 05:07:29;;;;;;;7.43;6.30;;;16.80;97.20;;;;;;1747944;28;20194;-63
2023/05/05 05:08:20;;;;;;;9.35;5.40;;;16.90;97.20;;;;;;1748192;28;20732;-62
2023/05/05 05:09:12;;;;;;;5.73;5.23;;;16.90;97.20;;;;;;1743602;28;20569;-62
2023/05/05 05:10:03;;;;;;;5.38;4.97;;;16.90;97.20;;;;;;1741227;28;20237;-63
2023/05/05 05:10:55;;;;;;;6.13;5.57;;;16.90;97.20;;;;;;1740489;28;20211;-61
2023/05/05 05:11:46;;;;;;;6.82;5.50;;;16.90;97.20;;;;;;1741471;28;20230;-63
2023/05/05 05:12:37;;;;;;;5.87;5.33;;;16.90;97.20;;;;;;1740961;28;20195;-62
2023/05/05 05:13:28;;;;;;;5.13;4.72;;;16.90;97.20;;;;;;1741221;28;20206;-61
2023/05/05 05:14:20;;;;;;;5.47;4.97;;;16.90;97.20;;;;;;1741299;28;20222;-64
2023/05/05 05:15:12;;;;;;;5.07;4.68;;;17.00;97.20;;;;;;1740882;28;20203;-61
2023/05/05 05:16:06;;;;;;;5.80;5.32;;;17.00;97.20;;;;;;1740921;28;20222;-62
2023/05/05 05:16:57;;;;;;;5.88;5.38;;;17.00;97.20;;;;;;1745715;28;20198;-62
2023/05/05 05:17:48;;;;;;;5.57;5.07;;;17.00;97.20;;;;;;1748221;28;20201;-62
2023/05/05 05:18:39;;;;;;;6.10;5.60;;;17.00;97.20;;;;;;1748239;28;20708;-62
2023/05/05 05:19:31;;;;;;;5.60;5.10;;;17.00;97.20;;;;;;1741174;28;20741;-62
2023/05/05 05:20:22;;;;;;;5.47;5.07;;;17.00;97.20;;;;;;1741250;28;20945;-62
2023/05/05 05:21:13;;;;;;;5.03;4.60;;;17.00;97.20;;;;;;1740453;28;20545;-62
2023/05/05 05:22:04;;;;;;;6.28;5.10;;;17.10;97.20;;;;;;1741349;28;20597;-62
2023/05/05 05:22:56;;;;;;;9.73;5.53;;;17.10;97.20;;;;;;1741332;28;20572;-62
2023/05/05 05:23:47;;;;;;;6.03;5.43;;;17.10;97.20;;;;;;1741309;28;20203;-62
2023/05/05 05:24:39;;;;;;;7.50;4.70;;;17.10;97.20;;;;;;1741275;28;20195;-62
2023/05/05 05:25:29;;;;;;;5.75;5.25;;;17.10;97.20;;;;;;1741150;28;20926;-62
2023/05/05 05:26:22;;;;;;;5.43;4.90;;;17.10;97.20;;;;;;1738911;28;20777;-62
2023/05/05 05:27:12;;;;;;;6.00;5.50;;;17.10;97.20;;;;;;1747563;28;20240;-63
2023/05/05 05:28:04;;;;;;;5.50;5.10;;;17.10;97.20;;;;;;1748063;28;20705;-62
2023/05/05 05:28:55;;;;;;;6.20;4.93;;;17.20;97.20;;;;;;1743215;28;20686;-61
2023/05/05 05:29:46;;;;;;;6.37;5.53;;;17.20;97.20;;;;;;1741381;28;20569;-62
2023/05/05 05:30:37;;;;;;;5.80;5.00;;;17.20;97.20;;;;;;1741043;28;20666;-63
2023/05/05 05:31:30;;;;;;;5.80;5.30;;;17.20;97.20;;;;;;1740830;28;20529;-62
2023/05/05 05:32:22;;;;;;;6.05;5.55;;;17.30;97.20;;;;;;1741217;28;20195;-62
2023/05/05 05:33:14;;;;;;;5.40;4.90;;;17.30;97.20;;;;;;1741088;28;20222;-62
2023/05/05 05:34:05;;;;;;;4.78;4.47;;;17.40;97.20;;;;;;1741148;28;20581;-62
2023/05/05 05:34:57;;;;;;;5.60;5.10;;;17.40;97.20;;;;;;1741157;28;20567;-62
2023/05/05 05:35:47;;;;;;;5.68;4.80;;;17.50;97.20;;;;;;1741257;28;20207;-61
2023/05/05 05:36:39;;;;;;;5.57;4.87;;;17.50;97.20;;;;;;1742757;28;20214;-62
2023/05/05 05:37:30;;;;;;;5.30;4.85;;;17.50;97.20;;;;;;1747707;28;20206;-62
2023/05/05 05:38:22;;;;;;;4.90;4.60;;;17.60;97.20;;;;;;1748075;28;20203;-62
2023/05/05 05:39:13;;;;;;;6.38;5.15;;;17.60;97.20;;;;;;1747990;28;20249;-62
2023/05/05 05:40:06;;;;;;;5.93;5.20;;;17.70;97.20;;;;;;1748017;28;20206;-62
2023/05/05 05:40:57;;;;;;;7.20;5.47;;;17.80;97.20;;;;;;1747952;28;20464;-63
2023/05/05 05:41:48;;;;;;;5.40;5.00;;;17.80;97.20;;;;;;1748106;28;20195;-63
2023/05/05 05:42:40;;;;;;;5.70;5.15;;;17.90;97.20;;;;;;1747681;28;20203;-62
2023/05/05 05:43:31;;;;;;;5.25;4.85;;;17.90;97.20;;;;;;1747603;28;20194;-63
2023/05/05 05:44:22;;;;;;;4.80;4.40;;;18.00;97.20;;;;;;1744420;28;20203;-63
2023/05/05 05:45:14;;;;;;;7.13;4.90;;;18.10;97.20;;;;;;1740528;28;20187;-63
2023/05/05 05:46:04;;;;;;;5.60;5.13;;;18.10;97.20;;;;;;1740720;28;20282;-63
2023/05/05 05:46:57;;;;;;;5.20;4.80;;;18.20;97.20;;;;;;1740116;28;20375;-62
2023/05/05 05:47:48;;;;;;;5.10;4.60;;;18.30;97.20;;;;;;1740683;28;20226;-63
2023/05/05 05:48:40;;;;;;;5.40;4.77;;;18.40;97.20;;;;;;1741035;28;20199;-63
2023/05/05 05:49:31;;;;;;;5.25;4.75;;;18.40;97.20;;;;;;1739667;28;20203;-63
2023/05/05 05:50:23;;;;;;;5.10;4.60;;;18.50;97.20;;;;;;1740852;28;20202;-62
2023/05/05 05:51:14;;;;;;;4.40;4.10;;;18.50;97.20;;;;;;1740989;28;20199;-62
2023/05/05 05:52:05;;;;;;;5.47;4.97;;;18.60;97.20;;;;;;1741451;28;20218;-63
2023/05/05 05:52:56;;;;;;;5.55;4.55;;;18.70;97.20;;;;;;1741150;28;20203;-62
2023/05/05 05:53:48;;;;;;;5.17;4.73;;;18.70;97.20;;;;;;1740703;28;20202;-62
2023/05/05 05:54:38;;;;;;;5.15;4.70;;;18.70;97.20;;;;;;1740589;28;20219;-62
2023/05/05 05:55:30;;;;;;;5.53;4.70;;;18.80;97.20;;;;;;1740632;28;20220;-64
2023/05/05 05:56:21;;;;;;;5.25;4.75;;;18.80;97.20;;;;;;1740427;28;20207;-62
2023/05/05 05:57:13;;;;;;;4.90;4.40;;;18.90;97.20;;;;;;1741283;28;20229;-63
2023/05/05 05:58:04;;;;;;;6.18;4.82;;;18.90;97.20;;;;;;1741395;28;20582;-63
2023/05/05 05:58:55;;;;;;;4.67;4.27;;;18.90;97.20;;;;;;1741276;28;20195;-62
2023/05/05 05:59:46;;;;;;;4.28;3.85;;;19.00;97.20;;;;;;1741387;28;20199;-62
2023/05/05 06:00:38;;;;;;;4.00;3.63;;;19.00;97.20;;;;;;1741026;28;20211;-63
2023/05/05 06:01:28;;;;;;;4.68;3.78;;;19.00;97.20;;;;;;1741359;28;20203;-63
2023/05/05 06:02:21;;;;;;;4.77;4.27;;;19.10;97.20;;;;;;1740959;28;20191;-63
2023/05/05 06:03:12;;;;;;;4.20;3.85;;;19.10;97.20;;;;;;1740987;28;20573;-63
2023/05/05 06:04:04;;;;;;;6.13;4.20;;;19.20;97.20;;;;;;1741354;28;20705;-62
2023/05/05 06:04:55;;;;;;;4.15;3.85;;;19.20;97.20;;;;;;1741000;28;20195;-63
2023/05/05 06:05:46;;;;;;;4.00;3.70;;;19.30;97.20;;;;;;1741223;28;20199;-64
2023/05/05 06:06:37;;;;;;;4.22;3.92;;;19.30;97.20;;;;;;1740762;28;20225;-63
2023/05/05 06:07:29;;;;;;;8.13;3.83;;;19.40;97.20;;;;;;1740752;28;20290;-62
2023/05/05 06:08:19;;;;;;;4.20;3.80;;;19.40;97.20;;;;;;1740825;28;20235;-62
2023/05/05 06:09:11;;;;;;;4.47;4.07;;;19.50;97.20;;;;;;1740717;28;20398;-62
2023/05/05 06:10:02;;;;;;;5.28;3.72;;;19.50;97.20;;;;;;1740911;28;20233;-62
2023/05/05 06:10:54;;;;;;;5.32;3.95;;;19.60;97.20;;;;;;1740665;28;20292;-63
2023/05/05 06:11:45;;;;;;;4.00;3.70;;;19.60;97.20;;;;;;1740797;28;20206;-63
2023/05/05 06:12:36;;;;;;;4.47;3.90;;;19.60;97.20;;;;;;1741031;28;20214;-63
2023/05/05 06:13:27;;;;;;;3.95;3.63;;;19.60;97.20;;;;;;1741011;28;20203;-63
2023/05/05 06:14:19;;;;;;;4.07;3.67;;;19.60;97.20;;;;;;1740939;28;20202;-62
2023/05/05 06:15:10;;;;;;;4.57;4.10;;;19.60;97.20;;;;;;1740950;28;20203;-63
2023/05/05 06:16:02;;;;;;;4.07;3.67;;;19.60;97.20;;;;;;1741015;28;20593;-63
2023/05/05 06:16:52;;;;;;;4.18;3.58;;;19.50;97.20;;;;;;1740260;28;20215;-63
2023/05/05 06:17:45;;;;;;;4.33;3.80;;;19.60;97.20;;;;;;1741011;28;20215;-63
2023/05/05 06:18:36;;;;;;;5.32;3.78;;;19.50;97.20;;;;;;1740812;28;20200;-62
2023/05/05 06:19:28;;;;;;;4.03;3.63;;;19.50;97.20;;;;;;1740798;28;20199;-63
2023/05/05 06:20:19;;;;;;;3.92;3.63;;;19.50;97.20;;;;;;1741033;28;20681;-63
2023/05/05 06:21:12;;;;;;;5.93;3.33;;;19.50;97.20;;;;;;1741186;28;20564;-63
2023/05/05 06:22:02;;;;;;;4.10;3.80;;;19.50;97.20;;;;;;1741163;28;20253;-63
2023/05/05 06:22:54;;;;;;;3.83;3.40;;;19.50;97.20;;;;;;1741154;28;20257;-63
2023/05/05 06:23:45;;;;;;;4.80;4.03;;;19.40;97.20;;;;;;1741274;28;20207;-62
2023/05/05 06:24:37;;;;;;;4.07;3.07;;;19.40;97.20;;;;;;1741214;28;20195;-63
2023/05/05 06:25:27;;;;;;;3.83;3.40;;;19.40;97.20;;;;;;1741123;28;20437;-63
2023/05/05 06:26:20;;;;;;;5.67;4.43;;;19.40;97.20;;;;;;1740854;28;20192;-63
2023/05/05 06:27:11;;;;;;;3.65;3.30;;;19.50;97.20;;;;;;1741011;28;20645;-62
2023/05/05 06:28:03;;;;;;;3.70;3.40;;;19.40;97.20;;;;;;1741051;28;20199;-63
2023/05/05 06:28:53;;;;;;;4.43;3.85;;;19.50;97.20;;;;;;1741154;28;20203;-63
2023/05/05 06:29:45;;;;;;;4.20;3.80;;;19.50;97.20;;;;;;1741167;28;20233;-63
2023/05/05 06:30:36;;;;;;;3.60;3.30;;;19.60;97.20;;;;;;1741030;28;20263;-63
2023/05/05 06:31:28;;;;;;;3.40;3.03;;;19.60;97.20;;;;;;1741297;28;20206;-62
2023/05/05 06:32:19;;;;;;;7.43;3.13;;;19.70;97.20;;;;;;1741198;28;20199;-62
2023/05/05 06:33:12;;;;;;;5.82;3.47;;;19.70;97.20;;;;;;1740797;28;20249;-63
2023/05/05 06:34:03;;;;;;;4.25;3.85;;;19.80;97.20;;;;;;1741170;28;20729;-62
2023/05/05 06:34:54;;;;;;;3.60;3.30;;;19.80;97.20;;;;;;1741153;28;20578;-63
2023/05/05 06:35:46;;;;;;;6.28;3.92;;;19.90;97.20;;;;;;1741063;28;20243;-63
2023/05/05 06:36:38;;;;;;;3.60;3.30;;;19.90;97.20;;;;;;1740854;28;20202;-62
2023/05/05 06:37:29;;;;;;;5.93;3.22;;;19.90;97.20;;;;;;1741051;28;20210;-62
2023/05/05 06:38:20;;;;;;;3.83;3.43;;;19.90;97.20;;;;;;1741139;28;20210;-63
2023/05/05 06:39:11;;;;;;;3.65;3.35;;;19.90;97.20;;;;;;1741028;28;20214;-63
2023/05/05 06:40:03;;;;;;;3.83;3.10;;;19.90;97.20;;;;;;1741072;28;20207;-63
2023/05/05 06:40:53;;;;;;;3.30;3.00;;;19.90;97.20;;;;;;1740979;28;20243;-63
2023/05/05 06:41:45;;;;;;;3.97;3.40;;;19.90;97.20;;;;;;1741095;28;20286;-63
2023/05/05 06:42:36;;;;;;;3.20;3.00;;;19.90;97.20;;;;;;1741090;28;20238;-63
2023/05/05 06:43:28;;;;;;;3.90;3.60;;;20.00;97.20;;;;;;1741136;28;20203;-63
2023/05/05 06:44:19;;;;;;;3.88;3.53;;;19.90;97.20;;;;;;1741133;28;20442;-62
2023/05/05 06:45:12;;;;;;;11.63;4.10;;;19.90;97.20;;;;;;1741028;28;20199;-63
2023/05/05 06:46:03;;;;;;;4.45;2.90;;;19.90;97.20;;;;;;1741102;28;20207;-63
2023/05/05 06:46:55;;;;;;;4.70;3.40;;;19.90;97.20;;;;;;1740658;28;20277;-63
2023/05/05 06:47:45;;;;;;;6.05;3.33;;;20.00;97.20;;;;;;1741041;28;20445;-63
2023/05/05 06:48:38;;;;;;;3.67;3.37;;;20.00;97.20;;;;;;1740997;28;20219;-63
2023/05/05 06:49:30;;;;;;;3.50;3.13;;;20.00;97.20;;;;;;1740753;28;20202;-63
2023/05/05 06:50:21;;;;;;;3.45;3.15;;;20.00;97.20;;;;;;1740614;28;20203;-63
2023/05/05 06:51:12;;;;;;;3.60;3.33;;;20.00;97.20;;;;;;1741030;28;20199;-63
2023/05/05 06:52:04;;;;;;;3.47;3.17;;;20.10;97.20;;;;;;1740909;28;20205;-63
2023/05/05 06:52:54;;;;;;;3.58;3.28;;;20.10;97.20;;;;;;1741066;28;20207;-63
2023/05/05 06:53:46;;;;;;;3.93;3.50;;;20.10;97.20;;;;;;1741045;28;20282;-62
2023/05/05 06:54:37;;;;;;;3.30;3.10;;;20.20;97.20;;;;;;1741085;28;20241;-64
2023/05/05 06:55:29;;;;;;;4.07;3.63;;;20.20;97.20;;;;;;1740976;28;20252;-62
2023/05/05 06:56:19;;;;;;;4.60;3.22;;;20.20;97.20;;;;;;1740895;28;20233;-62
2023/05/05 06:57:11;;;;;;;3.87;3.30;;;20.20;97.20;;;;;;1740988;28;20195;-63
2023/05/05 06:58:02;;;;;;;3.28;3.00;;;20.30;97.20;;;;;;1741096;28;20230;-63
2023/05/05 06:58:53;;;;;;;4.43;3.17;;;20.30;97.20;;;;;;1741072;28;20213;-63
2023/05/05 06:59:44;;;;;;;4.15;3.10;;;20.30;97.20;;;;;;1741042;28;20218;-63
2023/05/05 07:00:36;;;;;;;4.17;3.20;;;20.30;97.20;;;;;;1740946;28;20211;-63
2023/05/05 07:01:27;;;;;;;3.55;3.20;;;20.30;97.20;;;;;;1741052;28;20288;-63
2023/05/05 07:02:18;;;;;;;3.70;3.07;;;20.30;97.20;;;;;;1741033;28;20199;-61
2023/05/05 07:03:09;;;;;;;3.30;2.75;;;20.30;97.20;;;;;;1741035;28;20561;-63
2023/05/05 07:04:02;;;;;;;3.00;2.80;;;20.40;97.20;;;;;;1741059;28;20292;-63
2023/05/05 07:04:54;;;;;;;3.33;3.10;;;20.40;97.20;;;;;;1740721;28;20449;-63
2023/05/05 07:05:45;;;;;;;5.60;3.60;;;20.40;97.20;;;;;;1741008;28;20690;-63
2023/05/05 07:06:36;;;;;;;3.30;3.00;;;20.40;97.20;;;;;;1740708;28;20211;-63
2023/05/05 07:07:28;;;;;;;4.00;2.83;;;20.40;97.20;;;;;;1740965;28;20207;-63
2023/05/05 07:08:18;;;;;;;4.18;3.15;;;20.40;97.20;;;;;;1740957;28;20227;-63
2023/05/05 07:09:11;;;;;;;4.43;2.90;;;20.40;97.20;;;;;;1741192;28;20277;-63
2023/05/05 07:10:02;;;;;;;2.95;2.75;;;20.40;97.20;;;;;;1741053;28;20650;-63
2023/05/05 07:10:54;;;;;;;3.10;2.80;;;20.30;97.20;;;;;;1740975;28;20242;-63
2023/05/05 07:11:45;;;;;;;3.60;2.42;;;20.30;97.20;;;;;;1740974;28;20252;-63
2023/05/05 07:12:37;;;;;;;6.05;3.13;;;20.30;97.20;;;;;;1741000;28;20199;-62
2023/05/05 07:13:27;;;;;;;3.25;2.95;;;20.30;97.20;;;;;;1741009;28;20686;-63
2023/05/05 07:14:19;;;;;;;4.90;3.00;;;20.40;97.20;;;;;;1741078;28;20552;-62
2023/05/05 07:15:11;;;;;;;3.22;2.92;;;20.40;97.20;;;;;;1740996;28;20206;-61
2023/05/05 07:16:02;;;;;;;3.30;3.00;;;20.30;97.20;;;;;;1741088;28;20202;-63
2023/05/05 07:16:53;;;;;;;3.85;2.83;;;20.40;97.20;;;;;;1740515;28;20207;-62
2023/05/05 07:17:45;;;;;;;4.20;2.90;;;20.40;97.20;;;;;;1740975;28;20207;-62
2023/05/05 07:18:35;;;;;;;3.10;2.80;;;20.40;97.20;;;;;;1741037;28;20595;-62
2023/05/05 07:19:28;;;;;;;2.90;2.70;;;20.40;97.20;;;;;;1741028;28;20217;-63
2023/05/05 07:20:19;;;;;;;3.40;3.10;;;20.40;97.20;;;;;;1740877;28;20198;-63
2023/05/05 07:21:11;;;;;;;3.93;2.70;;;20.50;97.20;;;;;;1740683;28;20205;-63
2023/05/05 07:22:01;;;;;;;2.97;2.53;;;20.50;97.20;;;;;;1741034;28;20524;-63
2023/05/05 07:22:53;;;;;;;3.20;2.80;;;20.40;97.20;;;;;;1740956;28;20285;-63
2023/05/05 07:23:46;;;;;;;3.65;2.67;;;20.50;97.20;;;;;;1741795;28;20203;-63
2023/05/05 07:24:38;;;;;;;3.10;2.80;;;20.50;97.20;;;;;;1742267;28;20610;-63
2023/05/05 07:25:29;;;;;;;3.70;2.88;;;20.50;97.20;;;;;;1742349;28;20205;-62
2023/05/05 07:26:20;;;;;;;3.17;2.80;;;20.50;97.20;;;;;;1741981;28;20201;-63
2023/05/05 07:27:11;;;;;;;4.00;2.60;;;20.50;97.20;;;;;;1742172;28;20441;-63
2023/05/05 07:28:03;;;;;;;3.90;2.80;;;20.50;97.20;;;;;;1742371;28;20202;-63
2023/05/05 07:28:54;;;;;;;3.20;2.80;;;20.50;97.20;;;;;;1742279;28;20744;-63
2023/05/05 07:29:46;;;;;;;3.45;2.55;;;20.40;97.20;;;;;;1742288;28;20662;-63
2023/05/05 07:30:37;;;;;;;2.78;2.58;;;20.40;97.20;;;;;;1742165;28;20226;-63
2023/05/05 07:31:28;;;;;;;3.83;2.73;;;20.40;97.20;;;;;;1742295;28;20203;-63
2023/05/05 07:32:19;;;;;;;3.10;2.60;;;20.40;97.20;;;;;;1742315;28;20629;-63
2023/05/05 07:33:11;;;;;;;7.60;2.70;;;20.30;97.20;;;;;;1742253;28;20192;-63
2023/05/05 07:34:02;;;;;;;18.48;4.47;;;20.30;97.20;;;;;;1742270;28;20246;-63
2023/05/05 07:34:55;;;;;;;15.90;3.80;;;20.30;97.20;;;;;;1742222;28;20207;-63
2023/05/05 07:35:45;;;;;;;6.88;3.05;;;20.20;97.20;;;;;;1742262;28;20230;-63
2023/05/05 07:36:37;;;;;;;7.83;3.23;;;20.20;97.20;;;;;;1741964;28;20202;-63
2023/05/05 07:37:28;;;;;;;5.13;2.90;;;20.20;97.20;;;;;;1741849;28;20191;-63
2023/05/05 07:38:19;;;;;;;5.80;2.73;;;20.10;97.20;;;;;;1742247;28;20214;-63
2023/05/05 07:39:13;;;;;;;11.52;3.22;;;20.10;97.20;;;;;;1742149;28;20616;-63
2023/05/05 07:40:06;;;;;;;6.00;2.63;;;20.00;97.20;;;;;;1742242;28;20580;-63
2023/05/05 07:40:57;;;;;;;3.53;2.97;;;20.00;97.20;;;;;;1742088;28;20250;-63
2023/05/05 07:41:49;;;;;;;3.03;2.53;;;20.00;97.20;;;;;;1742144;28;20210;-63
2023/05/05 07:42:40;;;;;;;2.53;2.33;;;19.90;97.20;;;;;;1742290;28;20203;-63
2023/05/05 07:43:31;;;;;;;3.00;2.63;;;19.90;97.20;;;;;;1742250;28;20206;-63
2023/05/05 07:44:22;;;;;;;4.03;3.00;;;19.80;97.20;;;;;;1742190;28;20214;-63
2023/05/05 07:45:14;;;;;;;4.47;2.83;;;19.80;97.20;;;;;;1742087;28;20191;-63
2023/05/05 07:46:05;;;;;;;3.88;2.90;;;19.80;97.20;;;;;;1742139;28;20289;-63
2023/05/05 07:46:56;;;;;;;4.73;3.10;;;19.70;97.20;;;;;;1741838;28;20241;-63
2023/05/05 07:47:47;;;;;;;3.42;2.90;;;19.70;97.20;;;;;;1742164;28;20437;-63
2023/05/05 07:48:40;;;;;;;4.87;2.87;;;19.60;97.20;;;;;;1742138;28;20205;-63
2023/05/05 07:49:31;;;;;;;3.13;2.88;;;19.60;97.20;;;;;;1742157;28;20301;-63
2023/05/05 07:50:24;;;;;;;2.75;2.45;;;19.60;97.20;;;;;;1742057;28;20226;-63
2023/05/05 07:51:15;;;;;;;4.43;2.80;;;19.50;97.20;;;;;;1742104;28;20203;-62
2023/05/05 07:52:07;;;;;;;2.90;2.60;;;19.50;97.20;;;;;;1742148;28;20203;-63
2023/05/05 07:52:58;;;;;;;3.67;2.80;;;19.50;97.20;;;;;;1742143;28;20203;-63
2023/05/05 07:53:49;;;;;;;4.80;2.80;;;19.40;97.20;;;;;;1741467;28;20209;-63
2023/05/05 07:54:41;;;;;;;2.97;2.63;;;19.40;97.20;;;;;;1742197;28;20704;-63
2023/05/05 07:55:32;;;;;;;2.95;2.60;;;19.40;97.20;;;;;;1742192;28;20195;-63
2023/05/05 07:56:23;;;;;;;4.50;3.20;;;19.30;97.20;;;;;;1741801;28;20218;-62
2023/05/05 07:57:15;;;;;;;4.80;3.23;;;19.30;97.20;;;;;;1742020;28;20199;-63
2023/05/05 07:58:06;;;;;;;4.43;2.90;;;19.30;97.20;;;;;;1742135;28;20441;-63
2023/05/05 07:58:58;;;;;;;3.70;2.70;;;19.30;97.20;;;;;;1742066;28;20202;-63
2023/05/05 07:59:48;;;;;;;3.78;2.30;;;19.20;97.20;;;;;;1742083;28;20609;-63
2023/05/05 08:00:42;;;;;;;3.23;2.93;;;19.20;97.20;;;;;;1742042;28;20237;-62
2023/05/05 08:01:33;;;;;;;3.85;2.90;;;19.20;97.20;;;;;;1742068;28;20226;-63
2023/05/05 08:02:25;;;;;;;2.87;2.57;;;19.20;97.20;;;;;;1742123;28;20203;-63
2023/05/05 08:03:15;;;;;;;2.70;2.50;;;19.20;97.20;;;;;;1742062;28;20563;-62
2023/05/05 08:04:07;;;;;;;2.90;2.70;;;19.20;97.20;;;;;;1742063;28;20320;-63
2023/05/05 08:04:58;;;;;;;5.85;2.75;;;19.30;97.20;;;;;;1742039;28;20199;-63
2023/05/05 08:05:53;;;;;;;2.93;2.50;;;19.30;97.20;;;;;;1742085;28;20203;-63
2023/05/05 08:06:43;;;;;;;3.40;3.10;;;19.30;97.20;;;;;;1741813;28;20223;-63
2023/05/05 08:07:39;;;;;;;5.27;2.87;;;19.30;97.20;;;;;;1742009;28;20224;-63
2023/05/05 08:08:30;;;;;;;5.03;2.95;;;19.40;97.20;;;;;;1741946;28;20214;-62
2023/05/05 08:09:22;;;;;;;2.83;2.63;;;19.40;97.20;;;;;;1741998;28;20229;-62
2023/05/05 08:10:12;;;;;;;4.55;3.00;;;19.40;97.20;;;;;;1741524;28;20199;-62
2023/05/05 08:11:05;;;;;;;4.70;3.13;;;19.50;97.20;;;;;;1742046;28;20199;-62
2023/05/05 08:11:56;;;;;;;3.95;3.40;;;19.50;97.20;;;;;;1741938;28;20264;-62
2023/05/05 08:12:48;;;;;;;3.10;2.90;;;19.50;97.20;;;;;;1741915;28;20203;-62
2023/05/05 08:13:38;;;;;;;3.47;2.85;;;19.60;97.20;;;;;;1742040;28;20210;-62
2023/05/05 08:14:31;;;;;;;3.00;2.70;;;19.60;97.20;;;;;;1741990;28;20197;-62
2023/05/05 08:15:21;;;;;;;3.20;2.90;;;19.60;97.20;;;;;;1742167;28;20203;-62
2023/05/05 08:16:13;;;;;;;8.33;3.03;;;19.60;97.20;;;;;;1741840;28;20293;-62
2023/05/05 08:17:05;;;;;;;3.15;2.85;;;19.70;97.20;;;;;;1741889;28;20214;-61
2023/05/05 08:17:56;;;;;;;3.33;3.03;;;19.70;97.20;;;;;;1742136;28;20281;-62
2023/05/05 08:18:48;;;;;;;4.28;2.95;;;19.70;97.20;;;;;;1741930;28;20211;-62
2023/05/05 08:19:39;;;;;;;3.30;3.00;;;19.70;97.20;;;;;;1742127;28;20199;-61
2023/05/05 08:20:30;;;;;;;3.47;3.17;;;19.70;97.20;;;;;;1741905;28;20262;-61
2023/05/05 08:21:23;;;;;;;3.50;2.90;;;19.70;97.20;;;;;;1742026;28;20203;-62
2023/05/05 08:22:14;;;;;;;3.85;3.05;;;19.70;97.20;;;;;;1741947;28;20453;-61
2023/05/05 08:23:06;;;;;;;3.55;3.00;;;19.70;97.20;;;;;;1741914;28;20222;-61
2023/05/05 08:23:57;;;;;;;5.45;3.38;;;19.60;97.20;;;;;;1741984;28;20210;-61
2023/05/05 08:24:48;;;;;;;2.80;2.60;;;19.60;97.20;;;;;;1742022;28;20203;-62
2023/05/05 08:25:39;;;;;;;4.38;3.35;;;19.60;97.20;;;;;;1741648;28;20452;-62
2023/05/05 08:26:31;;;;;;;5.33;3.07;;;19.60;97.20;;;;;;1741367;28;20197;-63
2023/05/05 08:27:22;;;;;;;3.13;2.83;;;19.60;97.20;;;;;;1741848;28;20194;-62
2023/05/05 08:28:13;;;;;;;3.17;2.87;;;19.60;97.20;;;;;;1741765;28;20199;-63
2023/05/05 08:29:04;;;;;;;3.45;3.20;;;19.60;97.20;;;;;;1741800;28;20214;-62
2023/05/05 08:29:57;;;;;;;3.53;3.03;;;19.60;97.20;;;;;;1741864;28;20207;-63
2023/05/05 08:30:48;;;;;;;3.60;3.35;;;19.60;97.20;;;;;;1741605;28;20481;-62
2023/05/05 08:31:40;;;;;;;4.28;3.30;;;19.60;97.20;;;;;;1741872;28;20195;-62
2023/05/05 08:32:31;;;;;;;5.57;3.13;;;19.60;97.20;;;;;;1741817;28;20199;-61
2023/05/05 08:33:22;;;;;;;4.13;3.72;;;19.60;97.20;;;;;;1741819;28;20191;-62
2023/05/05 08:34:13;;;;;;;3.85;3.55;;;19.60;97.20;;;;;;1741222;28;20206;-62
2023/05/05 08:35:06;;;;;;;5.37;3.90;;;19.60;97.20;;;;;;1741869;28;20205;-62
2023/05/05 08:35:57;;;;;;;3.75;3.45;;;19.60;97.20;;;;;;1741828;28;20613;-61
2023/05/05 08:36:49;;;;;;;3.90;3.60;;;19.70;97.20;;;;;;1741363;28;20222;-62
2023/05/05 08:37:41;;;;;;;3.75;3.33;;;19.70;97.20;;;;;;1741846;28;20203;-62
2023/05/05 08:38:32;;;;;;;4.00;3.70;;;19.70;97.20;;;;;;1741783;28;20200;-62
2023/05/05 08:39:23;;;;;;;4.00;3.60;;;19.70;97.20;;;;;;1741859;28;20195;-61
2023/05/05 08:40:14;;;;;;;7.07;4.00;;;19.80;97.20;;;;;;1741858;28;20226;-62
2023/05/05 08:41:09;;;;;;;6.13;4.20;;;19.80;97.20;;;;;;1741775;28;20221;-62
2023/05/05 08:42:01;;;;;;;4.30;3.65;;;19.80;97.20;;;;;;1741412;28;20238;-62
2023/05/05 08:42:52;;;;;;;3.92;3.60;;;19.80;97.20;;;;;;1741754;28;20608;-62
2023/05/05 08:43:45;;;;;;;5.30;3.70;;;19.80;97.20;;;;;;1741838;28;20204;-62
2023/05/05 08:44:37;;;;;;;3.75;3.45;;;19.80;97.20;;;;;;1741774;28;20213;-62
2023/05/05 08:45:28;;;;;;;4.10;3.70;;;19.80;97.20;;;;;;1741667;28;20206;-62
2023/05/05 08:46:20;;;;;;;4.05;3.75;;;19.80;97.20;;;;;;1741452;28;20416;-62
2023/05/05 08:47:14;;;;;;;4.38;3.95;;;19.80;97.20;;;;;;1741679;28;20210;-61
2023/05/05 08:48:06;;;;;;;4.10;3.70;;;19.80;97.20;;;;;;1741805;28;20207;-62
2023/05/05 08:48:58;;;;;;;5.15;3.90;;;19.80;97.20;;;;;;1741644;28;20206;-62
2023/05/05 08:49:53;;;;;;;4.68;3.92;;;19.80;97.20;;;;;;1741703;28;20815;-61
2023/05/05 08:50:48;;;;;;;3.97;3.65;;;19.80;97.20;;;;;;1741721;28;20231;-62
2023/05/05 08:51:43;;;;;;;4.13;3.80;;;19.80;97.20;;;;;;1741795;28;20234;-61
2023/05/05 08:52:39;;;;;;;4.28;3.88;;;19.80;97.20;;;;;;1741676;28;20204;-62
2023/05/05 08:53:38;;;;;;;6.10;3.85;;;19.80;97.20;;;;;;1741767;28;20214;-62
2023/05/05 08:54:33;;;;;;;4.47;4.07;;;19.80;97.20;;;;;;1741709;28;20214;-61
2023/05/05 08:55:26;;;;;;;3.83;3.53;;;19.80;97.20;;;;;;1741722;28;20231;-62
2023/05/05 08:56:18;;;;;;;4.97;4.30;;;19.90;97.20;;;;;;1741300;28;20202;-62
2023/05/05 08:57:11;;;;;;;4.70;4.18;;;19.90;97.20;;;;;;1741655;28;20670;-62
2023/05/05 08:58:03;;;;;;;4.45;4.05;;;19.90;97.20;;;;;;1741668;28;20242;-62
2023/05/05 08:58:56;;;;;;;7.18;4.75;;;19.90;97.20;;;;;;1741296;28;20198;-61
2023/05/05 08:59:48;;;;;;;6.53;4.00;;;19.90;97.20;;;;;;1741679;28;20238;-62
2023/05/05 09:00:42;;;;;;;6.60;4.10;;;19.90;97.20;;;;;;1741701;28;20257;-62
2023/05/05 09:01:34;;;;;;;4.53;3.65;;;20.00;97.20;;;;;;1741631;28;20290;-62
2023/05/05 09:02:28;;;;;;;4.70;4.10;;;20.00;97.20;;;;;;1741643;28;20267;-61
2023/05/05 09:03:20;;;;;;;4.15;3.75;;;20.00;97.20;;;;;;1741579;28;20210;-61
2023/05/05 09:04:11;;;;;;;5.60;3.90;;;20.00;97.20;;;;;;1741606;28;20659;-62
2023/05/05 09:05:04;;;;;;;5.40;4.13;;;20.10;97.20;;;;;;1741706;28;20199;-62
2023/05/05 09:05:56;;;;;;;4.13;3.83;;;20.10;97.20;;;;;;1741587;28;20195;-62
2023/05/05 09:06:47;;;;;;;4.72;3.83;;;20.20;97.20;;;;;;1741223;28;20202;-62
2023/05/05 09:07:42;;;;;;;5.20;4.70;;;20.20;97.20;;;;;;1741669;28;20663;-61
2023/05/05 09:08:33;;;;;;;4.82;4.30;;;20.30;97.20;;;;;;1741648;28;20937;-62
2023/05/05 09:09:25;;;;;;;5.57;4.20;;;20.30;97.20;;;;;;1741559;28;20674;-61
2023/05/05 09:10:17;;;;;;;4.53;4.13;;;20.40;97.20;;;;;;1741519;28;20256;-62
2023/05/05 09:11:08;;;;;;;5.03;3.90;;;20.50;97.20;;;;;;1741664;28;20207;-61
2023/05/05 09:12:00;;;;;;;5.00;4.32;;;20.60;97.20;;;;;;1741622;28;20207;-62
2023/05/05 09:12:52;;;;;;;6.75;4.05;;;20.70;97.20;;;;;;1741604;28;20261;-62
2023/05/05 09:13:43;;;;;;;4.28;3.95;;;20.80;97.20;;;;;;1741668;28;20222;-62
2023/05/05 09:14:35;;;;;;;4.30;3.90;;;20.90;97.20;;;;;;1741148;28;20738;-61
2023/05/05 09:15:27;;;;;;;6.43;3.40;;;21.10;97.20;;;;;;1741566;28;20348;-61
2023/05/05 09:16:18;;;;;;;4.60;4.05;;;21.20;97.20;;;;;;1741228;28;20427;-62
2023/05/05 09:17:22;;;;;;;4.22;3.88;;;21.30;97.20;;;;;;1741461;28;20241;-62
2023/05/05 09:18:14;;;;;;;3.58;3.05;;;21.40;97.20;;;;;;1741614;28;20249;-62
2023/05/05 09:19:04;;;;;;;4.72;3.33;;;21.50;97.20;;;;;;1741584;28;20250;-62
2023/05/05 09:20:03;;;;;;;5.00;3.80;;;21.50;97.20;;;;;;1741556;28;20278;-62
2023/05/05 09:20:55;;;;;;;5.63;3.63;;;21.60;97.20;;;;;;1741491;28;20315;-62
2023/05/05 09:21:47;;;;;;;7.80;4.20;;;21.70;97.20;;;;;;1741507;28;20584;-62
2023/05/05 09:22:41;;;;;;;3.55;3.10;;;21.90;97.20;;;;;;1741497;28;20233;-61
2023/05/05 09:23:32;;;;;;;4.38;3.63;;;22.00;97.20;;;;;;1741500;28;20685;-62
2023/05/05 09:24:24;;;;;;;2.80;2.60;;;22.00;97.20;;;;;;1741661;28;20639;-62
2023/05/05 09:25:16;;;;;;;2.92;2.72;;;22.10;97.20;;;;;;1741618;28;20592;-62
2023/05/05 09:26:08;;;;;;;3.42;3.05;;;22.10;97.20;;;;;;1741582;28;20199;-62
2023/05/05 09:27:00;;;;;;;4.85;2.78;;;22.20;97.20;;;;;;1741151;28;20200;-62
2023/05/05 09:27:52;;;;;;;3.58;2.67;;;22.20;97.20;;;;;;1741428;28;20195;-62
2023/05/05 09:28:50;;;;;;;4.90;3.33;;;22.20;97.20;;;;;;1741527;28;20199;-62